Time;durP1;ratioP1;P1;durP2;ratioP2;P2;SDS_P1;SDS_P2;PMS_P1;PMS_P2;Temp;Humidity;BMP_temperature;BMP_pressure;BME280_temperature;BME280_humidity;BME280_pressure;Samples;Min_cycle;Max_cycle;Signal;HPM_P1;HPM_P2
2021/05/14 00:01:12;;;;;;;1999.90;999.90;;;;;;;11.56;92.46;95016.28;5072111;28;20239;-60
2021/05/14 00:03:38;;;;;;;1999.90;999.90;;;;;;;11.49;92.72;95015.25;5072393;28;20287;-60
2021/05/14 00:06:05;;;;;;;1999.90;999.90;;;;;;;11.48;93.10;95013.72;5072095;28;20279;-60
2021/05/14 00:08:32;;;;;;;1999.90;999.90;;;;;;;11.54;93.33;95012.47;5072219;28;20232;-60
2021/05/14 00:11:00;;;;;;;1999.90;999.90;;;;;;;11.52;93.44;95014.63;5071811;28;20256;-61
2021/05/14 00:13:27;;;;;;;1999.90;999.90;;;;;;;11.60;93.00;95006.81;5071878;28;20208;-61
2021/05/14 00:15:54;;;;;;;1999.90;999.90;;;;;;;11.63;92.80;95000.97;5070550;28;20201;-61
2021/05/14 00:18:21;;;;;;;1999.90;999.90;;;;;;;11.63;92.39;95003.56;5072323;28;20227;-61
2021/05/14 00:20:48;;;;;;;1999.90;999.90;;;;;;;11.63;92.82;95006.16;5071875;28;20235;-61
2021/05/14 00:23:15;;;;;;;1999.90;999.90;;;;;;;11.60;92.89;95006.03;5071768;28;20675;-59
2021/05/14 00:25:41;;;;;;;1999.90;999.90;;;;;;;11.49;93.25;95010.81;5071855;28;20275;-61
2021/05/14 00:28:09;;;;;;;1999.90;999.90;;;;;;;11.10;91.71;95014.41;5071535;28;20200;-60
2021/05/14 00:30:38;;;;;;;1999.90;999.90;;;;;;;10.69;92.28;95021.88;5071508;28;20261;-60
2021/05/14 00:33:05;;;;;;;1999.90;999.90;;;;;;;10.55;93.03;95018.66;5071789;28;20196;-60
2021/05/14 00:35:32;;;;;;;1999.90;999.90;;;;;;;10.63;94.30;95015.31;5071513;28;20603;-60
2021/05/14 00:37:59;;;;;;;1999.90;999.90;;;;;;;10.68;94.83;95025.56;5070301;28;20280;-62
2021/05/14 00:40:26;;;;;;;1999.90;999.90;;;;;;;10.48;95.84;95020.94;5071340;28;20786;-60
2021/05/14 00:42:53;;;;;;;1999.90;999.90;;;;;;;10.47;95.28;95020.16;5071437;28;20189;-61
2021/05/14 00:45:20;;;;;;;1999.90;999.90;;;;;;;10.17;95.27;95019.19;5071282;28;20204;-61
2021/05/14 00:47:47;;;;;;;1999.90;999.90;;;;;;;10.04;97.18;95021.88;5071465;28;20199;-61
2021/05/14 00:50:14;;;;;;;1999.90;999.90;;;;;;;10.07;97.40;95018.66;5071394;28;20220;-62
2021/05/14 00:52:41;;;;;;;1999.90;999.90;;;;;;;10.00;98.02;95018.34;5071349;28;20227;-61
2021/05/14 00:55:09;;;;;;;1999.90;999.90;;;;;;;10.00;97.51;95024.31;5071266;28;20197;-61
2021/05/14 00:57:37;;;;;;;1999.90;999.90;;;;;;;10.02;97.18;95029.97;5071229;28;20204;-61
2021/05/14 01:00:06;;;;;;;1999.90;999.90;;;;;;;10.09;97.02;95035.50;5070880;28;20192;-61
2021/05/14 01:02:34;;;;;;;1999.90;999.90;;;;;;;9.87;98.98;95036.31;5071249;28;20195;-61
2021/05/14 01:05:01;;;;;;;1999.90;999.90;;;;;;;9.95;99.46;95042.63;5071114;28;20224;-61
2021/05/14 01:07:27;;;;;;;1999.90;999.90;;;;;;;9.85;99.50;95038.47;5070912;28;20201;-60
2021/05/14 01:09:54;;;;;;;1999.90;999.90;;;;;;;9.86;99.00;95037.38;5070918;28;20196;-61
2021/05/14 01:12:21;;;;;;;1999.90;999.90;;;;;;;9.85;98.48;95038.47;5070772;28;20229;-62
2021/05/14 01:14:48;;;;;;;1999.90;999.90;;;;;;;9.84;98.82;95036.16;5071188;28;20201;-61
2021/05/14 01:17:15;;;;;;;1999.90;999.90;;;;;;;9.69;97.91;95049.50;5071177;28;20564;-61
2021/05/14 01:19:42;;;;;;;1999.90;999.90;;;;;;;9.31;97.58;95049.94;5070758;28;20223;-61
2021/05/14 01:22:10;;;;;;;1999.90;999.90;;;;;;;9.15;97.65;95047.97;5070703;28;20307;-62
2021/05/14 01:24:37;;;;;;;1999.90;999.90;;;;;;;9.20;98.81;95040.09;5070997;28;20303;-62
2021/05/14 01:27:04;;;;;;;1999.90;999.90;;;;;;;9.16;100.00;95042.50;5070433;28;20307;-61
2021/05/14 01:29:31;;;;;;;1999.90;999.90;;;;;;;9.33;100.00;95047.03;5070796;28;20287;-61
2021/05/14 01:32:00;;;;;;;1999.90;999.90;;;;;;;9.39;100.00;95049.19;5070379;28;20752;-62
2021/05/14 01:34:27;;;;;;;1999.90;999.90;;;;;;;9.40;99.42;95050.75;5070433;28;20196;-61
2021/05/14 01:36:53;;;;;;;1999.90;999.90;;;;;;;9.39;99.08;95054.38;5070575;28;20210;-61
2021/05/14 01:39:23;;;;;;;1999.90;999.90;;;;;;;9.33;98.33;95058.16;5070466;28;20280;-61
2021/05/14 01:41:51;;;;;;;1999.90;999.90;;;;;;;9.28;98.31;95050.50;5070661;28;20232;-60
2021/05/14 01:44:18;;;;;;;1999.90;999.90;;;;;;;9.28;98.77;95047.91;5070296;28;20249;-61
2021/05/14 01:46:45;;;;;;;1999.90;999.90;;;;;;;9.17;98.88;95045.84;5070279;28;20235;-61
2021/05/14 01:49:11;;;;;;;1999.90;999.90;;;;;;;9.13;99.05;95042.31;5070128;28;20201;-61
2021/05/14 01:51:38;;;;;;;1999.90;999.90;;;;;;;9.11;98.50;95044.44;5070313;28;20214;-62
2021/05/14 01:54:06;;;;;;;1999.90;999.90;;;;;;;8.99;99.73;95047.53;5070217;28;20196;-63
2021/05/14 01:56:33;;;;;;;1999.90;999.90;;;;;;;9.05;100.00;95048.97;5070344;28;20265;-61
2021/05/14 01:59:00;;;;;;;1999.90;999.90;;;;;;;9.12;99.45;95053.72;5070364;28;20212;-61
2021/05/14 02:01:27;;;;;;;1999.90;999.90;;;;;;;9.15;100.00;95061.69;5070980;28;20232;-63
2021/05/14 02:03:54;;;;;;;1999.90;999.90;;;;;;;8.98;100.00;95064.91;5073760;28;20192;-60
2021/05/14 02:06:21;;;;;;;1999.90;999.90;;;;;;;8.85;98.01;95062.38;5072415;28;20569;-61
2021/05/14 02:08:49;;;;;;;1999.90;999.90;;;;;;;8.59;97.99;95067.31;5069963;28;20295;-61
2021/05/14 02:11:18;;;;;;;1999.90;999.90;;;;;;;8.68;98.42;95068.16;5069828;28;20232;-61
2021/05/14 02:13:46;;;;;;;1999.90;999.90;;;;;;;8.75;99.05;95068.53;5069973;28;20254;-62
2021/05/14 02:16:13;;;;;;;1999.90;999.90;;;;;;;8.66;97.20;95064.34;5069860;28;20195;-63
2021/05/14 02:18:40;;;;;;;1999.90;999.90;;;;;;;8.58;96.91;95063.97;5069968;28;20216;-61
2021/05/14 02:21:08;;;;;;;1999.90;999.90;;;;;;;8.63;98.37;95065.69;5069774;28;20263;-61
2021/05/14 02:23:35;;;;;;;1999.90;999.90;;;;;;;8.34;98.41;95071.19;5070219;28;20196;-61
2021/05/14 02:26:02;;;;;;;1999.90;999.90;;;;;;;8.32;98.22;95070.69;5070244;28;20201;-61
2021/05/14 02:28:29;;;;;;;1999.90;999.90;;;;;;;8.33;98.66;95080.00;5069940;28;20599;-61
2021/05/14 02:30:56;;;;;;;1999.90;999.90;;;;;;;8.20;98.69;95067.81;5069733;28;20209;-61
2021/05/14 02:33:24;;;;;;;1999.90;999.90;;;;;;;8.01;98.65;95074.91;5069691;28;20197;-61
2021/05/14 02:35:50;;;;;;;1999.90;999.90;;;;;;;8.00;98.62;95071.53;5069896;28;20250;-62
2021/05/14 02:38:17;;;;;;;1999.90;999.90;;;;;;;8.07;99.43;95071.19;5070067;28;20200;-63
2021/05/14 02:40:44;;;;;;;1999.90;999.90;;;;;;;8.20;99.79;95068.59;5069848;28;20228;-61
2021/05/14 02:43:11;;;;;;;1999.90;999.90;;;;;;;8.30;100.00;95075.41;5069643;28;20235;-61
2021/05/14 02:45:38;;;;;;;1999.90;999.90;;;;;;;8.49;100.00;95075.28;5069622;28;20207;-61
2021/05/14 02:48:07;;;;;;;1999.90;999.90;;;;;;;8.42;100.00;95080.84;5069776;28;20586;-61
2021/05/14 02:50:34;;;;;;;1999.90;999.90;;;;;;;8.42;100.00;95080.84;5069792;28;20598;-61
2021/05/14 02:53:01;;;;;;;1999.90;999.90;;;;;;;8.50;99.92;95076.84;5069761;28;20196;-62
2021/05/14 02:55:28;;;;;;;1999.90;999.90;;;;;;;8.52;100.00;95072.88;5069656;28;20200;-61
2021/05/14 02:57:54;;;;;;;1999.90;999.90;;;;;;;8.66;100.00;95074.69;5069584;28;20226;-61
2021/05/14 03:00:23;;;;;;;1999.90;999.90;;;;;;;8.69;100.00;95074.88;5070987;28;20710;-60
2021/05/14 03:02:50;;;;;;;1999.90;999.90;;;;;;;8.70;100.00;95080.84;5073393;28;20200;-61
2021/05/14 03:05:18;;;;;;;1999.90;999.90;;;;;;;8.74;100.00;95082.53;5073485;28;20200;-61
2021/05/14 03:07:45;;;;;;;1999.90;999.90;;;;;;;8.71;100.00;95082.38;5073668;28;20229;-60
2021/05/14 03:10:12;;;;;;;1999.90;999.90;;;;;;;8.48;100.00;95082.28;5072182;28;20518;-63
2021/05/14 03:12:39;;;;;;;1999.90;999.90;;;;;;;8.66;100.00;95083.25;5073188;28;20219;-61
2021/05/14 03:15:07;;;;;;;1999.90;999.90;;;;;;;8.78;100.00;95077.53;5073081;28;20199;-62
2021/05/14 03:17:34;;;;;;;1999.90;999.90;;;;;;;8.83;100.00;95083.38;5073432;28;20196;-61
2021/05/14 03:20:01;;;;;;;1999.90;999.90;;;;;;;8.83;100.00;95085.22;5072962;28;20718;-61
2021/05/14 03:22:29;;;;;;;1999.90;999.90;;;;;;;8.55;99.00;95093.03;5073113;28;20698;-61
2021/05/14 03:24:56;;;;;;;1999.90;999.90;;;;;;;8.44;98.45;95089.09;5073185;28;20663;-62
2021/05/14 03:27:23;;;;;;;1999.90;999.90;;;;;;;8.49;98.53;95090.84;5072952;28;20262;-60
2021/05/14 03:29:50;;;;;;;1999.90;999.90;;;;;;;8.47;99.68;95098.88;5072725;28;20200;-61
2021/05/14 03:32:16;;;;;;;1999.90;999.90;;;;;;;8.42;100.00;95101.56;5073075;28;20569;-61
2021/05/14 03:34:43;;;;;;;1999.90;999.90;;;;;;;8.66;100.00;95103.19;5072635;28;20204;-61
2021/05/14 03:37:10;;;;;;;1999.90;999.90;;;;;;;8.70;100.00;95096.38;5072790;28;20193;-62
2021/05/14 03:39:43;;;;;;;1999.90;999.90;;;;;;;8.79;100.00;95102.41;5072673;28;20283;-61
2021/05/14 03:42:14;;;;;;;1999.90;999.90;;;;;;;8.86;100.00;95087.22;5072420;28;20741;-61
2021/05/14 03:44:42;;;;;;;1999.90;999.90;;;;;;;8.85;100.00;95093.47;5072511;28;20220;-62
2021/05/14 03:47:09;;;;;;;1999.90;999.90;;;;;;;8.93;100.00;95092.75;5072767;28;20193;-61
2021/05/14 03:49:37;;;;;;;1999.90;999.90;;;;;;;9.04;100.00;95096.69;5072755;28;20193;-61
2021/05/14 03:52:07;;;;;;;1999.90;999.90;;;;;;;9.09;100.00;95109.53;5072302;28;20197;-61
2021/05/14 03:54:34;;;;;;;1999.90;999.90;;;;;;;9.15;100.00;95110.94;5072579;28;20192;-61
2021/05/14 03:57:03;;;;;;;1999.90;999.90;;;;;;;9.23;100.00;95110.25;5071654;28;20449;-61
2021/05/14 03:59:30;;;;;;;1999.90;999.90;;;;;;;9.20;100.00;95108.25;5072364;28;20196;-61
2021/05/14 04:01:57;;;;;;;1999.90;999.90;;;;;;;9.28;100.00;95097.16;5072266;28;20228;-60
2021/05/14 04:04:25;;;;;;;1999.90;999.90;;;;;;;9.44;100.00;95100.94;5072181;28;20200;-61
2021/05/14 04:06:51;;;;;;;1999.90;999.90;;;;;;;9.41;100.00;95103.38;5072146;28;20197;-62
2021/05/14 04:09:24;;;;;;;1999.90;999.90;;;;;;;9.58;100.00;95100.88;5071876;28;20193;-59
2021/05/14 04:14:34;;;;;;;1999.90;999.90;;;;;;;9.71;100.00;95117.44;5070184;28;20762;-61
2021/05/14 04:17:03;;;;;;;1999.90;999.90;;;;;;;9.84;99.91;95112.19;5072092;28;20203;-62
2021/05/14 04:19:30;;;;;;;1999.90;999.90;;;;;;;10.05;99.37;95104.66;5071869;28;20216;-60
2021/05/14 04:21:58;;;;;;;1999.90;999.90;;;;;;;10.20;98.68;95112.09;5071590;28;20281;-60
2021/05/14 04:24:26;;;;;;;1999.90;999.90;;;;;;;10.51;97.20;95116.47;5071980;28;20208;-61
2021/05/14 04:26:55;;;;;;;1999.90;999.90;;;;;;;10.67;96.22;95115.72;5071574;28;20213;-61
2021/05/14 04:29:22;;;;;;;1999.90;999.90;;;;;;;11.17;94.40;95123.13;5071844;28;20223;-63
2021/05/14 04:31:50;;;;;;;1999.90;999.90;;;;;;;12.03;90.15;95123.84;5071459;28;20671;-60
2021/05/14 04:34:18;;;;;;;1999.90;999.90;;;;;;;12.48;86.85;95125.97;5075980;28;20204;-60
2021/05/14 04:36:45;;;;;;;1999.90;999.90;;;;;;;12.76;85.30;95140.09;5075702;28;20242;-60
2021/05/14 04:39:12;;;;;;;1999.90;999.90;;;;;;;12.95;84.38;95147.53;5076227;28;20199;-63
2021/05/14 04:41:39;;;;;;;1999.90;999.90;;;;;;;13.05;85.09;95154.22;5072507;28;20232;-61
2021/05/14 04:44:07;;;;;;;1999.90;999.90;;;;;;;13.04;84.90;95160.50;5072054;28;20279;-60
2021/05/14 04:46:34;;;;;;;1999.90;999.90;;;;;;;13.21;82.51;95157.81;5075359;28;20295;-60
2021/05/14 04:49:02;;;;;;;1999.90;999.90;;;;;;;13.29;80.83;95162.97;5074160;28;20231;-60
2021/05/14 04:51:29;;;;;;;1999.90;999.90;;;;;;;13.22;82.46;95162.72;5074149;28;20201;-61
2021/05/14 04:53:57;;;;;;;1999.90;999.90;;;;;;;13.35;82.05;95153.88;5072127;28;20667;-60
2021/05/14 04:56:23;;;;;;;1999.90;999.90;;;;;;;13.45;82.93;95155.31;5074498;28;20436;-58
2021/05/14 04:58:51;;;;;;;1999.90;999.90;;;;;;;13.64;82.31;95154.88;5073415;28;20197;-61
2021/05/14 05:01:18;;;;;;;1999.90;999.90;;;;;;;13.56;82.96;95153.09;5071933;28;20285;-60
2021/05/14 05:03:46;;;;;;;1999.90;999.90;;;;;;;13.61;83.25;95156.28;5072739;28;20676;-61
2021/05/14 05:06:13;;;;;;;1999.90;999.90;;;;;;;13.44;82.66;95153.06;5072932;28;20224;-59
2021/05/14 05:08:40;;;;;;;1999.90;999.90;;;;;;;13.35;84.06;95140.03;5072543;28;20196;-59
2021/05/14 05:11:07;;;;;;;1999.90;999.90;;;;;;;13.51;84.30;95148.84;5074802;28;20244;-61
2021/05/14 05:13:34;;;;;;;1999.90;999.90;;;;;;;13.45;85.90;95149.38;5072825;28;20777;-60
2021/05/14 05:16:01;;;;;;;1999.90;999.90;;;;;;;13.71;82.59;95160.34;5074544;28;20200;-62
2021/05/14 05:18:28;;;;;;;1999.90;999.90;;;;;;;13.75;83.09;95156.75;5074745;28;20278;-61
2021/05/14 05:20:54;;;;;;;1999.90;999.90;;;;;;;13.88;82.17;95165.41;5073952;28;20325;-61
2021/05/14 05:23:22;;;;;;;1999.90;999.90;;;;;;;13.75;84.72;95161.22;5072123;28;20228;-61
2021/05/14 05:25:49;;;;;;;1999.90;999.90;;;;;;;13.85;85.07;95157.47;5072465;28;20271;-63
2021/05/14 05:28:21;;;;;;;1999.90;999.90;;;;;;;13.99;84.44;95152.72;5074508;28;20205;-61
2021/05/14 05:30:48;;;;;;;1999.90;999.90;;;;;;;14.21;82.18;95152.31;5074144;28;20192;-60
2021/05/14 05:33:15;;;;;;;1999.90;999.90;;;;;;;14.36;82.95;95156.16;5073924;28;20212;-59
2021/05/14 05:35:42;;;;;;;1999.90;999.90;;;;;;;14.74;83.48;95154.06;5071860;28;20196;-62
2021/05/14 05:38:15;;;;;;;1999.90;999.90;;;;;;;14.97;81.58;95167.44;5073396;28;20205;-61
2021/05/14 05:40:43;;;;;;;1999.90;999.90;;;;;;;15.36;78.75;95174.59;5072885;28;20311;-60
2021/05/14 05:43:10;;;;;;;1999.90;999.90;;;;;;;15.59;78.49;95172.25;5072904;28;20193;-61
2021/05/14 05:45:37;;;;;;;1999.90;999.90;;;;;;;15.69;76.28;95184.88;5074610;28;20207;-59
2021/05/14 05:48:05;;;;;;;1999.90;999.90;;;;;;;16.05;75.21;95189.22;5074479;28;20227;-61
2021/05/14 05:50:32;;;;;;;1999.90;999.90;;;;;;;16.25;74.62;95192.72;5075524;28;20637;-58
2021/05/14 05:52:59;;;;;;;1999.90;999.90;;;;;;;16.51;75.53;95189.63;5075940;28;20193;-59
2021/05/14 05:55:26;;;;;;;1999.90;999.90;;;;;;;16.69;70.79;95188.97;5074749;28;20276;-61
2021/05/14 05:57:54;;;;;;;1999.90;999.90;;;;;;;16.90;66.62;95187.94;5073343;28;20192;-58
2021/05/14 06:00:21;;;;;;;1999.90;999.90;;;;;;;16.75;68.41;95192.13;5073581;28;20288;-60
2021/05/14 06:02:47;;;;;;;1999.90;999.90;;;;;;;16.46;71.49;95187.25;5075165;28;20215;-60
2021/05/14 06:05:15;;;;;;;1999.90;999.90;;;;;;;16.30;71.66;95192.47;5075924;28;20200;-60
2021/05/14 06:07:42;;;;;;;1999.90;999.90;;;;;;;16.30;73.21;95198.50;5074666;28;20437;-61
2021/05/14 06:10:09;;;;;;;1999.90;999.90;;;;;;;16.50;70.40;95191.50;5072669;28;20215;-59
2021/05/14 06:12:36;;;;;;;1999.90;999.90;;;;;;;16.58;69.81;95187.19;5075661;28;20248;-59
2021/05/14 06:15:07;;;;;;;1999.90;999.90;;;;;;;16.46;72.36;95189.88;5074012;28;20220;-59
2021/05/14 06:17:38;;;;;;;1999.90;999.90;;;;;;;16.63;70.85;95179.09;5074849;28;20200;-60
2021/05/14 06:20:07;;;;;;;1999.90;999.90;;;;;;;17.02;69.34;95183.38;5074101;28;20242;-61
2021/05/14 06:22:33;;;;;;;1999.90;999.90;;;;;;;17.54;67.89;95188.25;5074195;28;20285;-60
2021/05/14 06:25:01;;;;;;;1999.90;999.90;;;;;;;17.96;64.34;95190.22;5074681;28;20242;-60
2021/05/14 06:27:27;;;;;;;1999.90;999.90;;;;;;;17.66;67.61;95191.88;5073603;28;20201;-59
2021/05/14 06:29:54;;;;;;;1999.90;999.90;;;;;;;18.08;66.05;95193.44;5073073;28;20200;-59
2021/05/14 06:32:22;;;;;;;1999.90;999.90;;;;;;;18.25;63.57;95192.25;5072523;28;20224;-59
2021/05/14 06:34:50;;;;;;;1999.90;999.90;;;;;;;18.28;64.04;95191.56;5074770;28;20197;-62
2021/05/14 06:37:18;;;;;;;1999.90;999.90;;;;;;;18.13;64.58;95189.81;5075265;28;20196;-60
2021/05/14 06:39:45;;;;;;;1999.90;999.90;;;;;;;17.85;66.28;95192.63;5075985;28;20196;-61
2021/05/14 06:42:11;;;;;;;1999.90;999.90;;;;;;;18.10;63.97;95192.34;5076391;28;20230;-61
2021/05/14 06:44:38;;;;;;;1999.90;999.90;;;;;;;18.49;62.31;95194.56;5075593;28;20646;-60
2021/05/14 06:47:05;;;;;;;1999.90;999.90;;;;;;;18.85;61.62;95190.66;5076373;28;20195;-60
2021/05/14 06:49:33;;;;;;;1999.90;999.90;;;;;;;18.78;60.12;95189.81;5075752;28;20192;-60
2021/05/14 06:52:00;;;;;;;1999.90;999.90;;;;;;;18.89;57.69;95186.22;5076530;28;20208;-59
2021/05/14 06:54:27;;;;;;;1999.90;999.90;;;;;;;19.02;58.01;95186.78;5075986;28;20245;-60
2021/05/14 06:56:53;;;;;;;1999.90;999.90;;;;;;;19.39;57.85;95181.66;5075720;28;20192;-60
2021/05/14 06:59:20;;;;;;;1999.90;999.90;;;;;;;19.68;56.25;95190.69;5076183;28;20262;-60
2021/05/14 07:01:47;;;;;;;1999.90;999.90;;;;;;;19.34;55.85;95192.50;5076847;28;20243;-61
2021/05/14 07:04:15;;;;;;;1999.90;999.90;;;;;;;19.30;57.39;95189.06;5076882;28;20575;-59
2021/05/14 07:06:42;;;;;;;1999.90;999.90;;;;;;;19.33;55.20;95186.47;5075987;28;20251;-59
2021/05/14 07:09:09;;;;;;;1999.90;999.90;;;;;;;18.96;56.44;95193.47;5077143;28;20254;-60
2021/05/14 07:11:36;;;;;;;1999.90;999.90;;;;;;;18.78;55.03;95201.06;5075751;28;20224;-59
2021/05/14 07:14:03;;;;;;;1999.90;999.90;;;;;;;19.01;59.61;95190.53;5077674;28;20198;-61
2021/05/14 07:16:31;;;;;;;1999.90;999.90;;;;;;;18.70;58.18;95188.91;5076527;28;20200;-60
2021/05/14 07:18:58;;;;;;;1999.90;999.90;;;;;;;18.67;58.04;95189.63;5078204;28;20281;-60
2021/05/14 07:21:24;;;;;;;1999.90;999.90;;;;;;;18.96;55.23;95196.09;5076509;28;20311;-60
2021/05/14 07:23:52;;;;;;;1999.90;999.90;;;;;;;18.85;55.90;95195.94;5075764;28;20205;-59
2021/05/14 07:26:19;;;;;;;1999.90;999.90;;;;;;;18.73;54.59;95190.84;5077838;28;20266;-58
2021/05/14 07:28:46;;;;;;;1999.90;999.90;;;;;;;18.80;55.85;95188.31;5077230;28;20554;-61
2021/05/14 07:31:13;;;;;;;1999.90;999.90;;;;;;;18.81;58.18;95183.81;5077381;28;20192;-60
2021/05/14 07:33:40;;;;;;;1999.90;999.90;;;;;;;19.02;56.65;95178.13;5077279;28;20193;-59
2021/05/14 07:36:07;;;;;;;1999.90;999.90;;;;;;;19.27;53.10;95190.53;5076130;28;20189;-60
2021/05/14 07:38:34;;;;;;;1999.90;999.90;;;;;;;19.58;52.48;95191.31;5076639;28;20264;-59
2021/05/14 07:41:02;;;;;;;1999.90;999.90;;;;;;;19.58;51.50;95186.81;5076661;28;20591;-61
2021/05/14 07:43:28;;;;;;;1999.90;999.90;;;;;;;19.85;49.45;95186.75;5076274;28;20192;-60
2021/05/14 07:45:55;;;;;;;1999.90;999.90;;;;;;;19.80;47.00;95189.72;5076388;28;20193;-59
2021/05/14 07:48:22;;;;;;;1999.90;999.90;;;;;;;19.62;49.25;95186.88;5076483;28;20675;-60
2021/05/14 07:50:49;;;;;;;1999.90;999.90;;;;;;;19.35;49.39;95188.75;5076846;28;20207;-58
2021/05/14 07:53:16;;;;;;;1999.90;999.90;;;;;;;19.26;51.38;95181.09;5076904;28;20289;-60
2021/05/14 07:55:43;;;;;;;1999.90;999.90;;;;;;;19.60;50.41;95179.31;5076894;28;20288;-62
2021/05/14 07:58:11;;;;;;;1999.90;999.90;;;;;;;20.11;48.03;95181.41;5076435;28;20295;-61
2021/05/14 08:00:40;;;;;;;1999.90;999.90;;;;;;;20.27;48.10;95189.13;5077555;28;20628;-61
2021/05/14 08:03:07;;;;;;;1999.90;999.90;;;;;;;20.39;46.16;95186.22;5076061;28;20216;-61
2021/05/14 08:05:34;;;;;;;1999.90;999.90;;;;;;;20.50;47.89;95182.56;5075377;28;20205;-60
2021/05/14 08:08:06;;;;;;;1999.90;999.90;;;;;;;20.89;44.87;95184.78;5075066;28;20207;-59
2021/05/14 08:10:32;;;;;;;1999.90;999.90;;;;;;;20.72;44.32;95186.16;5076843;28;20622;-61
2021/05/14 08:12:59;;;;;;;1999.90;999.90;;;;;;;20.73;45.05;95190.31;5074671;28;20224;-61
2021/05/14 08:15:28;;;;;;;1999.90;999.90;;;;;;;20.77;45.63;95185.06;5076533;28;20200;-59
2021/05/14 08:17:54;;;;;;;1999.90;999.90;;;;;;;21.09;44.82;95186.03;5075073;28;20195;-61
2021/05/14 08:20:22;;;;;;;1999.90;999.90;;;;;;;21.60;43.52;95183.34;5072262;28;20208;-63
2021/05/14 08:22:49;;;;;;;1999.90;999.90;;;;;;;21.95;41.53;95185.41;5071786;28;20260;-61
2021/05/14 08:25:16;;;;;;;1999.90;999.90;;;;;;;21.83;42.57;95185.72;5071711;28;20192;-61
2021/05/14 08:27:43;;;;;;;1999.90;999.90;;;;;;;21.68;44.14;95179.59;5071515;28;20217;-61
2021/05/14 08:30:12;;;;;;;1999.90;999.90;;;;;;;21.13;44.08;95186.06;5071508;28;20287;-61
2021/05/14 08:32:40;;;;;;;1999.90;999.90;;;;;;;21.43;44.54;95184.00;5071419;28;20188;-61
2021/05/14 08:35:09;;;;;;;1999.90;999.90;;;;;;;21.72;43.19;95172.44;5071679;28;20663;-61
2021/05/14 08:37:37;;;;;;;1999.90;999.90;;;;;;;21.91;40.86;95179.31;5071736;28;20207;-62
2021/05/14 08:40:07;;;;;;;1999.90;999.90;;;;;;;21.67;40.99;95177.34;5071366;28;20192;-61
2021/05/14 08:42:38;;;;;;;1999.90;999.90;;;;;;;21.46;42.08;95168.19;5071292;28;20224;-61
2021/05/14 08:45:06;;;;;;;1999.90;999.90;;;;;;;21.96;40.91;95165.75;5071766;28;20655;-61
2021/05/14 08:47:33;;;;;;;1999.90;999.90;;;;;;;21.78;41.46;95175.47;5071404;28;20211;-61
2021/05/14 08:50:03;;;;;;;1999.90;999.90;;;;;;;22.02;42.90;95161.59;5071287;28;20346;-63
2021/05/14 08:52:30;;;;;;;1999.90;999.90;;;;;;;21.94;40.65;95154.78;5071019;28;20640;-61
2021/05/14 08:54:59;;;;;;;1999.90;999.90;;;;;;;22.19;41.46;95160.91;5071027;28;20227;-61
2021/05/14 08:57:26;;;;;;;1999.90;999.90;;;;;;;22.29;41.55;95175.28;5070276;28;20196;-62
2021/05/14 08:59:53;;;;;;;1999.90;999.90;;;;;;;22.05;39.86;95160.09;5070784;28;20232;-62
2021/05/14 09:02:20;;;;;;;1999.90;999.90;;;;;;;22.49;42.13;95170.41;5070767;28;20732;-62
2021/05/14 09:04:48;;;;;;;1999.90;999.90;;;;;;;22.27;39.43;95167.72;5070984;28;20196;-60
2021/05/14 09:07:18;;;;;;;1999.90;999.90;;;;;;;22.16;40.48;95172.25;5070882;28;20192;-60
2021/05/14 09:10:07;;;;;;;1999.90;999.90;;;;;;;22.19;41.32;95165.44;5071194;28;20200;-60
2021/05/14 09:12:35;;;;;;;1999.90;999.90;;;;;;;21.91;38.92;95155.50;5070513;28;20228;-61
2021/05/14 09:15:20;;;;;;;1999.90;999.90;;;;;;;21.31;40.51;95160.53;5070610;28;20192;-59
2021/05/14 09:18:11;;;;;;;1999.90;999.90;;;;;;;21.57;40.06;95154.25;5070466;28;20627;-61
2021/05/14 09:20:40;;;;;;;1999.90;999.90;;;;;;;21.85;40.46;95151.72;5070677;28;20193;-62
2021/05/14 09:23:27;;;;;;;1999.90;999.90;;;;;;;21.72;39.12;95153.91;5070802;28;20204;-61
2021/05/14 09:25:56;;;;;;;1999.90;999.90;;;;;;;22.13;38.42;95143.88;5070604;28;20192;-61
2021/05/14 09:28:26;;;;;;;1999.90;999.90;;;;;;;22.72;40.37;95154.91;5070940;28;20550;-60
2021/05/14 09:31:08;;;;;;;1999.90;999.90;;;;;;;23.13;38.36;95144.66;5070897;28;20193;-61
2021/05/14 09:33:36;;;;;;;1999.90;999.90;;;;;;;23.18;38.00;95144.25;5070384;28;20200;-61
2021/05/14 09:36:05;;;;;;;1999.90;999.90;;;;;;;23.44;36.75;95140.41;5070620;28;20250;-61
2021/05/14 09:38:44;;;;;;;1999.90;999.90;;;;;;;23.36;36.02;95133.63;5070223;28;20283;-61
2021/05/14 09:41:35;;;;;;;1999.90;999.90;;;;;;;23.48;36.19;95133.22;5070257;28;20236;-61
2021/05/14 09:44:05;;;;;;;1999.90;999.90;;;;;;;23.80;36.44;95151.69;5070225;28;20203;-61
2021/05/14 09:46:35;;;;;;;1999.90;999.90;;;;;;;23.87;33.68;95146.34;5070332;28;20204;-61
2021/05/14 09:49:04;;;;;;;1999.90;999.90;;;;;;;23.12;34.82;95143.91;5070357;28;20630;-61
2021/05/14 09:51:33;;;;;;;1999.90;999.90;;;;;;;22.95;38.19;95151.88;5070336;28;20193;-60
2021/05/14 09:54:20;;;;;;;1999.90;999.90;;;;;;;22.98;35.75;95135.97;5070104;28;20676;-62
2021/05/14 09:57:15;;;;;;;1999.90;999.90;;;;;;;23.41;37.69;95135.88;5070242;28;20226;-61
2021/05/14 09:59:42;;;;;;;1999.90;999.90;;;;;;;23.04;36.56;95146.94;5070144;28;20643;-61
2021/05/14 10:02:23;;;;;;;1999.90;999.90;;;;;;;22.32;36.47;95145.41;5069762;28;20318;-60
2021/05/14 10:04:51;;;;;;;1999.90;999.90;;;;;;;22.27;39.89;95135.19;5070301;28;20199;-60
2021/05/14 10:07:18;;;;;;;1999.90;999.90;;;;;;;22.95;37.66;95143.94;5069928;28;20561;-60
2021/05/14 10:09:50;;;;;;;1999.90;999.90;;;;;;;23.04;36.90;95149.59;5069631;28;20208;-60
2021/05/14 10:12:19;;;;;;;1999.90;999.90;;;;;;;22.99;38.00;95142.78;5069826;28;20231;-60
2021/05/14 10:14:46;;;;;;;1999.90;999.90;;;;;;;23.04;36.34;95149.59;5069795;28;20760;-62
2021/05/14 10:17:13;;;;;;;1999.90;999.90;;;;;;;23.00;35.72;95154.16;5069838;28;20222;-60
2021/05/14 10:19:41;;;;;;;1999.90;999.90;;;;;;;22.57;34.79;95159.44;5070008;28;20247;-61
2021/05/14 10:22:09;;;;;;;1999.90;999.90;;;;;;;22.10;34.91;95151.81;5069768;28;20232;-60
2021/05/14 10:24:44;;;;;;;1999.90;999.90;;;;;;;22.09;35.50;95151.03;5069757;28;20193;-60
2021/05/14 10:27:20;;;;;;;1999.90;999.90;;;;;;;22.46;35.12;95155.28;5069975;28;20284;-61
2021/05/14 10:29:49;;;;;;;1999.90;999.90;;;;;;;22.49;36.95;95149.97;5070264;28;20655;-61
2021/05/14 10:32:17;;;;;;;1999.90;999.90;;;;;;;22.03;39.70;95152.53;5069628;28;20730;-61
2021/05/14 10:34:44;;;;;;;1999.90;999.90;;;;;;;22.48;37.46;95150.34;5069545;28;20675;-61
2021/05/14 10:37:11;;;;;;;1999.90;999.90;;;;;;;22.60;39.53;95157.94;5069791;28;20211;-60
2021/05/14 10:39:39;;;;;;;1999.90;999.90;;;;;;;22.74;36.03;95165.91;5069671;28;20189;-60
2021/05/14 10:42:12;;;;;;;1999.90;999.90;;;;;;;23.00;38.40;95164.75;5069777;28;20275;-60
2021/05/14 10:44:46;;;;;;;1999.90;999.90;;;;;;;22.77;34.14;95159.06;5070003;28;20203;-62
2021/05/14 10:47:47;;;;;;;1999.90;999.90;;;;;;;22.06;34.01;95151.81;5069930;28;20615;-63
2021/05/14 10:50:36;;;;;;;1999.90;999.90;;;;;;;22.59;34.22;95151.09;5069818;28;20201;-60
2021/05/14 10:53:33;;;;;;;1999.90;999.90;;;;;;;22.94;33.10;95145.81;5069424;28;20601;-62
2021/05/14 10:56:36;;;;;;;1999.90;999.90;;;;;;;23.37;33.14;95138.53;5069560;28;20193;-62
2021/05/14 10:59:10;;;;;;;1999.90;999.90;;;;;;;23.51;31.87;95146.47;5069406;28;20230;-61
2021/05/14 11:01:40;;;;;;;1999.90;999.90;;;;;;;23.05;30.02;95140.50;5069414;28;20311;-61
2021/05/14 11:04:40;;;;;;;1999.90;999.90;;;;;;;22.60;33.97;95149.97;5069400;28;20246;-63